Time;durP1;ratioP1;P1;durP2;ratioP2;P2;SDS_P1;SDS_P2;PMS_P1;PMS_P2;Temp;Humidity;BMP_temperature;BMP_pressure;BME280_temperature;BME280_humidity;BME280_pressure;Samples;Min_cycle;Max_cycle;Signal;HPM_P1;HPM_P2
2022/07/31 00:00:29;;;;;;;8.13;2.57;;;19.30;99.90;;;;;;5157270;27;20134;-72
2022/07/31 00:02:55;;;;;;;5.90;2.50;;;19.30;99.90;;;;;;5157120;27;20125;-70
2022/07/31 00:05:21;;;;;;;5.60;2.87;;;19.30;99.90;;;;;;5138985;27;20039;-70
2022/07/31 00:07:47;;;;;;;6.23;2.60;;;19.30;99.90;;;;;;5157096;27;20047;-70
2022/07/31 00:10:13;;;;;;;5.73;2.63;;;19.20;99.90;;;;;;5157407;27;20439;-71
2022/07/31 00:12:39;;;;;;;5.40;3.03;;;19.20;99.90;;;;;;5156893;27;20047;-71
2022/07/31 00:15:06;;;;;;;9.50;2.67;;;19.10;99.90;;;;;;5156158;27;20053;-71
2022/07/31 00:17:33;;;;;;;7.73;2.77;;;19.10;99.90;;;;;;5121483;27;20047;-71
2022/07/31 00:19:58;;;;;;;7.60;2.77;;;19.10;99.90;;;;;;5157040;27;20050;-70
2022/07/31 00:22:24;;;;;;;7.90;3.83;;;19.10;99.90;;;;;;5157000;27;20050;-70
2022/07/31 00:24:50;;;;;;;10.13;4.60;;;19.10;99.90;;;;;;5156686;27;20038;-70
2022/07/31 00:27:15;;;;;;;6.47;3.50;;;19.10;99.90;;;;;;5156917;27;20397;-70
2022/07/31 00:29:41;;;;;;;5.80;3.13;;;19.20;99.90;;;;;;5156723;27;20050;-70
2022/07/31 00:32:06;;;;;;;7.57;2.90;;;19.10;99.90;;;;;;5157054;27;20129;-70
2022/07/31 00:34:32;;;;;;;6.23;2.47;;;19.10;99.90;;;;;;5156583;27;20047;-74
2022/07/31 00:36:58;;;;;;;8.00;2.80;;;19.20;99.90;;;;;;5121318;27;20094;-70
2022/07/31 00:39:24;;;;;;;6.00;2.33;;;19.10;99.90;;;;;;5156795;27;20130;-70
2022/07/31 00:41:49;;;;;;;7.00;2.53;;;19.10;99.90;;;;;;5138139;27;20149;-70
2022/07/31 00:44:15;;;;;;;5.80;2.83;;;19.10;99.90;;;;;;5156583;27;20501;-70
2022/07/31 00:46:41;;;;;;;5.23;2.40;;;19.10;99.90;;;;;;5156321;27;20082;-70
2022/07/31 00:49:11;;;;;;;6.87;2.30;;;19.10;99.90;;;;;;5156488;27;20050;-70
2022/07/31 00:51:40;;;;;;;4.13;2.37;;;19.10;99.90;;;;;;5156132;27;20043;-70
2022/07/31 00:54:09;;;;;;;7.83;3.37;;;19.10;99.90;;;;;;5156509;27;20053;-70
2022/07/31 00:56:35;;;;;;;6.20;2.80;;;19.10;99.90;;;;;;5156523;27;20142;-72
2022/07/31 00:59:01;;;;;;;6.73;2.73;;;19.10;99.90;;;;;;5156257;27;20059;-70
2022/07/31 01:01:28;;;;;;;6.47;2.73;;;19.00;99.90;;;;;;5155983;27;20397;-70
2022/07/31 01:03:53;;;;;;;8.23;2.63;;;19.00;99.90;;;;;;5137652;27;20043;-70
2022/07/31 01:06:19;;;;;;;4.97;2.50;;;18.90;99.90;;;;;;5156298;27;20042;-70
2022/07/31 01:08:45;;;;;;;4.53;2.50;;;19.00;99.90;;;;;;5155858;27;20042;-70
2022/07/31 01:11:18;;;;;;;4.73;2.47;;;18.90;99.90;;;;;;5137802;27;20049;-70
2022/07/31 01:13:58;;;;;;;6.67;3.13;;;18.90;99.90;;;;;;5155811;27;20047;-70
2022/07/31 01:16:27;;;;;;;8.90;2.50;;;18.90;99.90;;;;;;5156105;27;20047;-70
2022/07/31 01:18:55;;;;;;;7.93;3.20;;;18.90;99.90;;;;;;5155659;27;20064;-70
2022/07/31 01:21:45;;;;;;;7.77;3.17;;;18.90;99.90;;;;;;5155854;27;20146;-70
2022/07/31 01:24:38;;;;;;;5.77;2.93;;;18.90;99.90;;;;;;5137599;27;20372;-70
2022/07/31 01:27:25;;;;;;;7.33;2.83;;;18.90;99.90;;;;;;5156192;27;20053;-70
2022/07/31 01:29:55;;;;;;;6.40;2.67;;;18.90;99.90;;;;;;5155533;27;20402;-70
2022/07/31 01:32:45;;;;;;;7.23;2.87;;;18.90;99.90;;;;;;5155929;27;20368;-70
2022/07/31 01:35:20;;;;;;;5.80;3.00;;;18.90;99.90;;;;;;5155508;27;20043;-70
2022/07/31 01:38:12;;;;;;;5.13;2.80;;;18.80;99.90;;;;;;5155032;27;20408;-70
2022/07/31 01:40:44;;;;;;;8.43;2.80;;;18.80;99.90;;;;;;5155438;27;20053;-70
2022/07/31 01:43:21;;;;;;;6.50;3.17;;;18.80;99.90;;;;;;5155474;27;20053;-70
2022/07/31 01:45:50;;;;;;;8.27;3.47;;;18.90;99.90;;;;;;5155274;27;20130;-70
2022/07/31 01:48:17;;;;;;;4.77;2.73;;;18.90;99.90;;;;;;5155340;27;20125;-70
2022/07/31 01:50:45;;;;;;;5.83;3.10;;;18.90;99.90;;;;;;5155056;27;20496;-72
2022/07/31 01:53:17;;;;;;;6.03;2.90;;;18.90;99.90;;;;;;5155521;27;20095;-70
2022/07/31 01:55:45;;;;;;;7.07;2.93;;;18.90;99.90;;;;;;5154868;27;20121;-75
2022/07/31 01:58:11;;;;;;;7.10;3.40;;;18.90;99.90;;;;;;5155161;27;20049;-70
2022/07/31 02:00:38;;;;;;;7.40;3.20;;;18.80;99.90;;;;;;5136868;27;20050;-70
2022/07/31 02:03:05;;;;;;;7.93;3.03;;;18.80;99.90;;;;;;5154845;27;20054;-70
2022/07/31 02:05:33;;;;;;;7.00;2.83;;;18.80;99.90;;;;;;5155052;27;20320;-70
2022/07/31 02:07:59;;;;;;;7.87;2.87;;;18.80;99.90;;;;;;5154766;27;20087;-71
2022/07/31 02:10:26;;;;;;;7.43;3.17;;;18.80;99.90;;;;;;5155118;27;20053;-70
2022/07/31 02:12:53;;;;;;;10.47;3.40;;;18.80;99.90;;;;;;5154579;27;20053;-70
2022/07/31 02:15:20;;;;;;;6.03;3.10;;;18.80;99.90;;;;;;5154381;27;20134;-70
2022/07/31 02:17:47;;;;;;;9.77;3.80;;;18.90;99.90;;;;;;5154446;27;20509;-74
2022/07/31 02:20:14;;;;;;;6.63;3.27;;;18.80;99.90;;;;;;5154914;27;20125;-70
2022/07/31 02:22:40;;;;;;;6.23;3.37;;;18.90;99.90;;;;;;5154842;27;20047;-70
2022/07/31 02:25:08;;;;;;;6.90;3.60;;;18.80;99.90;;;;;;5154492;27;20110;-70
2022/07/31 02:27:38;;;;;;;7.10;3.57;;;18.70;99.90;;;;;;5154760;27;20394;-70
2022/07/31 02:30:04;;;;;;;7.37;3.57;;;18.70;99.90;;;;;;5119173;27;20054;-70
2022/07/31 02:32:32;;;;;;;7.00;3.53;;;18.70;99.90;;;;;;5154702;27;20038;-70
2022/07/31 02:35:00;;;;;;;7.33;3.50;;;18.70;99.90;;;;;;5154287;27;20378;-70
2022/07/31 02:37:28;;;;;;;6.10;3.37;;;18.70;99.90;;;;;;5153955;27;20054;-70
2022/07/31 02:39:54;;;;;;;4.77;3.40;;;18.70;99.90;;;;;;5136119;27;20171;-70
2022/07/31 02:42:21;;;;;;;7.03;3.50;;;18.80;99.90;;;;;;5154904;27;20047;-70
2022/07/31 02:44:47;;;;;;;6.23;3.37;;;18.80;99.90;;;;;;5136497;27;20094;-70
2022/07/31 02:47:14;;;;;;;10.37;3.87;;;18.80;99.90;;;;;;5154356;27;20050;-70
2022/07/31 02:49:40;;;;;;;7.87;3.50;;;18.80;99.90;;;;;;5154520;27;20054;-70
2022/07/31 02:52:07;;;;;;;6.87;3.20;;;18.80;99.90;;;;;;5154222;27;20076;-70
2022/07/31 02:54:36;;;;;;;7.13;3.73;;;18.80;99.90;;;;;;5136186;27;20058;-70
2022/07/31 02:57:02;;;;;;;7.07;3.53;;;18.80;99.90;;;;;;5135621;27;20046;-70
2022/07/31 02:59:28;;;;;;;6.67;3.53;;;18.80;99.90;;;;;;5154409;27;20047;-70
2022/07/31 03:01:54;;;;;;;7.03;3.20;;;18.70;99.90;;;;;;5135791;27;20099;-70
2022/07/31 03:04:20;;;;;;;6.97;3.40;;;18.70;99.90;;;;;;5154553;27;20095;-70
2022/07/31 03:06:47;;;;;;;8.67;3.60;;;18.70;99.90;;;;;;5154439;27;20047;-70
2022/07/31 03:09:14;;;;;;;8.07;3.83;;;18.70;99.90;;;;;;5154048;27;20050;-70
2022/07/31 03:11:39;;;;;;;6.40;3.77;;;18.70;99.90;;;;;;5136164;27;20133;-70
2022/07/31 03:14:09;;;;;;;5.60;3.87;;;18.60;99.90;;;;;;5153723;27;20134;-70
2022/07/31 03:16:36;;;;;;;6.70;3.60;;;18.50;99.90;;;;;;5154258;27;20539;-70
2022/07/31 03:19:04;;;;;;;8.03;3.50;;;18.50;99.90;;;;;;5135795;27;20050;-70
2022/07/31 03:21:30;;;;;;;7.40;3.37;;;18.40;99.90;;;;;;5154197;27;20047;-70
2022/07/31 03:23:57;;;;;;;8.47;3.63;;;18.40;99.90;;;;;;5135695;27;20500;-71
2022/07/31 03:26:24;;;;;;;8.50;3.73;;;18.30;99.90;;;;;;5154142;27;20095;-70
2022/07/31 03:28:49;;;;;;;6.97;4.13;;;18.30;99.90;;;;;;5154169;27;20051;-70
2022/07/31 03:31:15;;;;;;;6.37;3.30;;;18.30;99.90;;;;;;5153864;27;20436;-70
2022/07/31 03:33:41;;;;;;;6.03;3.60;;;18.30;99.90;;;;;;5154118;27;20082;-70
2022/07/31 03:36:11;;;;;;;5.37;3.47;;;18.30;99.90;;;;;;5153631;27;20042;-70
2022/07/31 03:38:37;;;;;;;7.33;3.80;;;18.40;99.90;;;;;;5153855;27;20452;-70
2022/07/31 03:41:03;;;;;;;8.40;3.80;;;18.30;99.90;;;;;;5153717;27;20091;-70
2022/07/31 03:43:31;;;;;;;7.87;3.70;;;18.30;99.90;;;;;;5135222;27;20043;-70
2022/07/31 03:46:00;;;;;;;7.20;3.77;;;18.30;99.90;;;;;;5153927;27;20061;-71
2022/07/31 03:48:28;;;;;;;7.80;3.67;;;18.30;99.90;;;;;;5153975;27;20051;-70
2022/07/31 03:50:54;;;;;;;9.87;4.20;;;18.30;99.90;;;;;;5156558;27;20085;-70
2022/07/31 03:53:21;;;;;;;7.57;4.00;;;18.30;99.90;;;;;;5157058;27;20078;-70
2022/07/31 03:55:47;;;;;;;8.93;4.10;;;18.30;99.90;;;;;;5157645;27;20042;-70
2022/07/31 03:58:14;;;;;;;7.97;4.10;;;18.30;99.90;;;;;;5138919;27;20049;-70
2022/07/31 04:00:42;;;;;;;7.60;4.17;;;18.30;99.90;;;;;;5139062;27;20125;-70
2022/07/31 04:03:10;;;;;;;8.77;4.23;;;18.30;99.90;;;;;;5157230;27;20069;-70
2022/07/31 04:05:37;;;;;;;8.37;4.40;;;18.30;99.90;;;;;;5157344;27;20050;-70
2022/07/31 04:08:04;;;;;;;6.43;4.07;;;18.40;99.90;;;;;;5157073;27;20046;-70
2022/07/31 04:10:30;;;;;;;6.07;4.00;;;18.40;99.90;;;;;;5157376;27;20042;-70
2022/07/31 04:12:56;;;;;;;7.47;4.43;;;18.40;99.90;;;;;;5139020;27;20059;-70
2022/07/31 04:15:22;;;;;;;7.33;4.33;;;18.40;99.90;;;;;;5156860;27;20126;-70
2022/07/31 04:17:48;;;;;;;8.10;3.93;;;18.40;99.90;;;;;;5157373;27;20125;-70
2022/07/31 04:20:14;;;;;;;7.73;3.83;;;18.50;99.90;;;;;;5156844;27;20038;-70
2022/07/31 04:22:40;;;;;;;7.37;3.93;;;18.50;99.90;;;;;;5157236;27;20039;-70
2022/07/31 04:25:06;;;;;;;6.67;3.97;;;18.50;99.90;;;;;;5156703;27;20061;-70
2022/07/31 04:27:34;;;;;;;7.80;3.90;;;18.50;99.90;;;;;;5156708;27;20046;-70
2022/07/31 04:30:00;;;;;;;9.20;4.00;;;18.50;99.90;;;;;;5156930;27;20043;-70
2022/07/31 04:32:26;;;;;;;8.13;3.93;;;18.40;99.90;;;;;;5156659;27;20132;-70
2022/07/31 04:34:51;;;;;;;8.60;4.20;;;18.40;99.90;;;;;;5156852;27;20493;-70
2022/07/31 04:37:17;;;;;;;7.40;4.13;;;18.40;99.90;;;;;;5156540;27;20442;-70
2022/07/31 04:39:43;;;;;;;7.53;4.30;;;18.40;99.90;;;;;;5156144;27;20134;-70
2022/07/31 04:42:09;;;;;;;7.23;4.10;;;18.40;99.90;;;;;;5138150;27;20035;-71
2022/07/31 04:44:35;;;;;;;7.50;4.20;;;18.30;99.90;;;;;;5156830;27;20085;-70
2022/07/31 04:47:05;;;;;;;9.43;4.40;;;18.40;99.90;;;;;;5138248;27;20126;-70
2022/07/31 04:49:31;;;;;;;7.20;3.83;;;18.40;99.90;;;;;;5138245;27;20042;-70
2022/07/31 04:52:00;;;;;;;7.80;3.93;;;18.40;99.90;;;;;;5138317;27;20047;-70
2022/07/31 04:54:26;;;;;;;8.77;4.83;;;18.50;99.90;;;;;;5156101;27;20047;-70
2022/07/31 04:56:52;;;;;;;8.33;4.13;;;18.50;99.90;;;;;;5137937;27;20046;-70
2022/07/31 04:59:20;;;;;;;8.50;4.30;;;18.60;99.90;;;;;;5156006;27;20042;-70
2022/07/31 05:01:47;;;;;;;7.47;4.67;;;18.60;99.90;;;;;;5155844;27;20054;-70
2022/07/31 05:04:14;;;;;;;10.97;4.53;;;18.70;99.90;;;;;;5156052;27;20046;-70
2022/07/31 05:06:42;;;;;;;7.50;4.57;;;18.70;99.90;;;;;;5156167;27;20046;-70
2022/07/31 05:09:11;;;;;;;7.77;4.30;;;18.70;99.90;;;;;;5155943;27;20039;-70
2022/07/31 05:11:38;;;;;;;6.57;3.93;;;18.80;99.90;;;;;;5156028;27;20047;-70
2022/07/31 05:14:06;;;;;;;7.47;3.90;;;18.90;99.90;;;;;;5155584;27;20077;-70
2022/07/31 05:16:33;;;;;;;8.30;4.50;;;18.90;99.90;;;;;;5155920;27;20079;-70
2022/07/31 05:18:59;;;;;;;7.20;4.17;;;18.90;99.90;;;;;;5137474;27;20061;-70
2022/07/31 05:21:26;;;;;;;8.87;4.20;;;18.80;99.90;;;;;;5155616;27;20421;-70
2022/07/31 05:23:53;;;;;;;10.40;4.77;;;18.90;99.90;;;;;;5155967;27;20054;-70
2022/07/31 05:26:19;;;;;;;5.93;4.40;;;18.90;99.90;;;;;;5120264;27;20047;-70
2022/07/31 05:28:45;;;;;;;7.17;3.97;;;18.90;99.90;;;;;;5155781;27;20103;-70
2022/07/31 05:31:11;;;;;;;9.43;4.40;;;19.00;99.90;;;;;;5155437;27;20039;-70
2022/07/31 05:33:38;;;;;;;13.47;4.80;;;19.00;99.90;;;;;;5137462;27;20103;-70
2022/07/31 05:36:04;;;;;;;10.60;4.47;;;19.00;99.90;;;;;;5155526;27;20149;-70
2022/07/31 05:38:30;;;;;;;8.33;4.70;;;19.00;99.90;;;;;;5155305;27;20149;-70
2022/07/31 05:40:56;;;;;;;7.53;4.67;;;19.00;99.90;;;;;;5137022;27;20427;-70
2022/07/31 05:43:22;;;;;;;9.73;4.90;;;19.10;99.90;;;;;;5155250;27;20042;-70
2022/07/31 05:45:48;;;;;;;7.50;5.00;;;19.10;99.90;;;;;;5155417;27;20088;-70
2022/07/31 05:48:15;;;;;;;6.60;4.67;;;19.10;99.90;;;;;;5155124;27;20074;-71
2022/07/31 05:50:42;;;;;;;7.97;4.93;;;19.10;99.90;;;;;;5155385;27;20066;-70
2022/07/31 05:53:11;;;;;;;7.40;3.97;;;19.10;99.90;;;;;;5155352;27;20074;-70
2022/07/31 05:55:38;;;;;;;7.73;4.50;;;19.20;99.90;;;;;;5155196;27;20046;-70
2022/07/31 05:58:04;;;;;;;7.97;5.10;;;19.20;99.90;;;;;;5136945;27;20110;-70
2022/07/31 06:00:30;;;;;;;8.20;5.07;;;19.20;99.90;;;;;;5154971;27;20050;-70
2022/07/31 06:02:55;;;;;;;9.23;4.33;;;19.20;99.90;;;;;;5155094;27;20047;-70
2022/07/31 06:05:21;;;;;;;7.93;4.70;;;19.20;99.90;;;;;;5154903;27;20035;-70
2022/07/31 06:07:49;;;;;;;7.10;4.70;;;19.30;99.90;;;;;;5155066;27;20435;-70
2022/07/31 06:10:15;;;;;;;9.33;4.50;;;19.30;99.90;;;;;;5154699;27;20103;-70
2022/07/31 06:12:41;;;;;;;9.37;4.70;;;19.30;99.90;;;;;;5135820;27;20042;-70
2022/07/31 06:15:07;;;;;;;6.97;5.07;;;19.30;99.90;;;;;;5154873;27;20047;-70
2022/07/31 06:17:32;;;;;;;11.63;5.10;;;19.30;99.90;;;;;;5154575;27;20505;-70
2022/07/31 06:19:58;;;;;;;8.93;5.03;;;19.30;99.90;;;;;;5154895;27;20050;-70
2022/07/31 06:22:24;;;;;;;7.47;5.40;;;19.40;99.90;;;;;;5154547;27;20046;-70
2022/07/31 06:24:50;;;;;;;9.60;5.47;;;19.40;99.90;;;;;;5155041;27;20038;-70
2022/07/31 06:27:16;;;;;;;9.77;5.37;;;19.50;99.90;;;;;;5154794;27;20497;-74
2022/07/31 06:29:42;;;;;;;9.90;5.03;;;19.50;99.90;;;;;;5154795;27;20039;-70
2022/07/31 06:32:08;;;;;;;9.30;5.23;;;19.60;99.90;;;;;;5154670;27;20043;-70
2022/07/31 06:34:33;;;;;;;7.77;4.77;;;19.60;99.90;;;;;;5154253;27;20099;-70
2022/07/31 06:36:59;;;;;;;8.37;5.60;;;19.70;99.90;;;;;;5154661;27;20482;-70
2022/07/31 06:39:25;;;;;;;8.40;5.50;;;19.70;99.90;;;;;;5136051;27;20047;-70
2022/07/31 06:41:51;;;;;;;9.03;5.73;;;19.70;99.90;;;;;;5154544;27;20043;-70
2022/07/31 06:44:19;;;;;;;9.90;6.03;;;19.70;99.90;;;;;;5154475;27;20129;-70
2022/07/31 06:46:46;;;;;;;8.43;5.30;;;19.80;99.90;;;;;;5154484;27;20057;-70
2022/07/31 06:49:12;;;;;;;10.17;6.13;;;19.80;99.90;;;;;;5154562;27;20042;-70
2022/07/31 06:51:38;;;;;;;7.97;6.10;;;19.90;99.90;;;;;;5153664;27;20521;-70
2022/07/31 06:54:08;;;;;;;13.43;6.93;;;20.00;99.90;;;;;;5154340;27;20043;-70
2022/07/31 06:56:36;;;;;;;11.27;6.80;;;20.20;99.90;;;;;;5154447;27;20156;-70
2022/07/31 06:59:03;;;;;;;9.13;6.90;;;20.30;99.90;;;;;;5154385;27;20042;-70
2022/07/31 07:01:28;;;;;;;10.90;6.70;;;20.50;99.90;;;;;;5154222;27;20070;-70
2022/07/31 07:03:54;;;;;;;8.73;6.13;;;20.60;99.90;;;;;;5154331;27;20486;-70
2022/07/31 07:06:20;;;;;;;8.00;6.30;;;20.70;99.90;;;;;;5154229;27;20042;-74
2022/07/31 07:08:46;;;;;;;8.77;6.77;;;20.70;99.90;;;;;;5135857;27;20141;-70
2022/07/31 07:11:12;;;;;;;8.73;6.90;;;20.80;99.90;;;;;;5154643;27;20137;-70
2022/07/31 07:13:39;;;;;;;10.17;6.80;;;20.90;99.90;;;;;;5154127;27;20054;-70
2022/07/31 07:16:05;;;;;;;9.70;7.03;;;21.00;99.90;;;;;;5154311;27;20046;-70
2022/07/31 07:18:30;;;;;;;10.90;7.53;;;21.00;99.90;;;;;;5153892;27;20095;-71
2022/07/31 07:20:56;;;;;;;11.20;7.40;;;21.10;99.90;;;;;;5154271;27;20043;-70
2022/07/31 07:23:22;;;;;;;12.60;8.00;;;21.10;99.90;;;;;;5154191;27;20047;-74
2022/07/31 07:25:48;;;;;;;11.67;7.50;;;21.10;99.90;;;;;;5158200;27;20469;-71
2022/07/31 07:28:14;;;;;;;13.50;8.43;;;21.00;99.90;;;;;;5157978;27;20129;-71
2022/07/31 07:30:40;;;;;;;11.13;8.37;;;21.00;99.90;;;;;;5157786;27;20043;-71
2022/07/31 07:33:06;;;;;;;15.13;8.20;;;21.00;99.90;;;;;;5158076;27;20131;-71
2022/07/31 07:35:31;;;;;;;15.30;7.63;;;21.00;99.90;;;;;;5158116;27;20475;-71
2022/07/31 07:37:57;;;;;;;10.60;7.40;;;21.00;99.90;;;;;;5139566;27;20129;-70
2022/07/31 07:40:25;;;;;;;11.30;7.73;;;21.00;99.90;;;;;;5157877;27;20042;-70
2022/07/31 07:42:51;;;;;;;10.43;7.43;;;21.00;99.90;;;;;;5157779;27;20099;-70
2022/07/31 07:45:17;;;;;;;12.07;7.10;;;21.00;99.90;;;;;;5157488;27;20397;-70
2022/07/31 07:47:43;;;;;;;13.50;7.47;;;21.00;99.90;;;;;;5157439;27;20054;-70
2022/07/31 07:50:09;;;;;;;15.10;8.03;;;21.00;99.90;;;;;;5157854;27;20046;-70
2022/07/31 07:52:36;;;;;;;11.07;7.57;;;21.10;99.90;;;;;;5157327;27;20080;-70
2022/07/31 07:55:02;;;;;;;13.70;7.80;;;21.00;99.90;;;;;;5157506;27;20122;-71
2022/07/31 07:57:28;;;;;;;13.20;8.00;;;21.10;99.90;;;;;;5138850;27;20054;-71
2022/07/31 07:59:58;;;;;;;11.63;7.93;;;21.10;99.90;;;;;;5157740;27;20047;-70
2022/07/31 08:02:24;;;;;;;12.33;7.77;;;21.10;99.90;;;;;;5157428;27;20038;-70
2022/07/31 08:04:50;;;;;;;13.90;9.03;;;21.10;99.90;;;;;;5157011;27;20050;-71
2022/07/31 08:07:16;;;;;;;13.23;8.43;;;21.10;99.90;;;;;;5157349;27;20046;-70
2022/07/31 08:09:42;;;;;;;17.93;10.37;;;21.00;99.90;;;;;;5156740;27;20171;-69
2022/07/31 08:12:08;;;;;;;15.27;10.07;;;21.00;99.90;;;;;;5138488;27;20046;-70
2022/07/31 08:14:34;;;;;;;14.97;10.97;;;20.90;99.90;;;;;;5156878;27;20047;-70
2022/07/31 08:17:00;;;;;;;17.63;10.93;;;20.90;99.90;;;;;;5157192;27;20051;-69
2022/07/31 08:19:25;;;;;;;16.90;10.97;;;20.80;99.90;;;;;;5138654;27;20042;-71
2022/07/31 08:21:51;;;;;;;14.13;11.00;;;20.80;99.90;;;;;;5156937;27;20130;-71
2022/07/31 08:24:17;;;;;;;16.70;12.10;;;20.70;99.90;;;;;;5157144;27;20053;-70
2022/07/31 08:29:28;;;;;;;21.87;12.73;;;20.60;99.90;;;;;;5141704;27;20050;-71
2022/07/31 08:31:53;;;;;;;23.60;13.20;;;20.60;99.90;;;;;;5156951;27;20534;-71
2022/07/31 08:34:20;;;;;;;17.83;12.83;;;20.60;99.90;;;;;;5156951;27;20043;-69
2022/07/31 08:36:46;;;;;;;18.83;13.73;;;20.50;99.90;;;;;;5137552;27;20475;-69
2022/07/31 08:39:11;;;;;;;20.03;13.37;;;20.50;99.90;;;;;;5157019;27;20099;-69
2022/07/31 08:41:39;;;;;;;22.00;15.33;;;20.50;99.90;;;;;;5156502;27;20038;-74
2022/07/31 08:44:06;;;;;;;18.77;14.43;;;20.50;99.90;;;;;;5157093;27;20443;-80
2022/07/31 08:46:35;;;;;;;20.50;15.27;;;20.40;99.90;;;;;;5138332;27;20098;-78
2022/07/31 08:49:02;;;;;;;23.83;16.33;;;20.40;99.90;;;;;;5156692;27;20038;-75
2022/07/31 08:51:33;;;;;;;20.67;14.83;;;20.40;99.90;;;;;;5156761;27;20051;-71
2022/07/31 08:54:01;;;;;;;19.03;15.07;;;20.50;99.90;;;;;;5156673;27;20156;-73
2022/07/31 08:56:28;;;;;;;16.97;14.20;;;20.50;99.90;;;;;;5156475;27;20042;-73
2022/07/31 08:58:56;;;;;;;17.90;14.73;;;20.50;99.90;;;;;;5156159;27;20557;-78
2022/07/31 09:01:22;;;;;;;20.60;16.27;;;20.50;99.90;;;;;;5121067;27;20045;-78
2022/07/31 09:03:48;;;;;;;20.63;16.50;;;20.50;99.90;;;;;;5137786;27;20046;-76
2022/07/31 09:06:14;;;;;;;17.83;14.60;;;20.50;99.90;;;;;;5156397;27;20050;-77
2022/07/31 09:08:40;;;;;;;19.30;15.20;;;20.60;99.90;;;;;;5156310;27;20039;-74
2022/07/31 09:11:08;;;;;;;18.23;13.93;;;20.50;99.90;;;;;;5156222;27;20046;-75
2022/07/31 09:13:33;;;;;;;18.50;14.37;;;20.60;99.90;;;;;;5156192;27;20043;-76
2022/07/31 09:16:00;;;;;;;19.30;13.70;;;20.60;99.90;;;;;;5136893;27;20050;-76
2022/07/31 09:18:26;;;;;;;18.60;14.37;;;20.60;99.90;;;;;;5156374;27;20050;-75
2022/07/31 09:21:00;;;;;;;22.60;15.90;;;20.50;99.90;;;;;;5137489;27;20042;-75
2022/07/31 09:23:28;;;;;;;16.30;13.75;;;20.60;99.90;;;;;;5156157;27;20116;-76
2022/07/31 09:25:59;;;;;;;17.80;13.07;;;20.60;99.90;;;;;;5155714;27;20043;-71
2022/07/31 09:28:58;;;;;;;18.13;14.17;;;20.50;99.90;;;;;;5155630;27;20494;-70
2022/07/31 09:31:31;;;;;;;18.90;14.60;;;20.40;99.90;;;;;;5136552;27;20059;-70
2022/07/31 09:33:57;;;;;;;18.33;15.00;;;20.40;99.90;;;;;;5155551;27;20035;-70
2022/07/31 09:36:23;;;;;;;22.80;15.87;;;20.30;99.90;;;;;;5137127;27;20117;-70
2022/07/31 09:38:50;;;;;;;18.80;14.63;;;20.30;99.90;;;;;;5155390;27;20047;-73
2022/07/31 09:41:18;;;;;;;21.93;17.97;;;20.30;99.90;;;;;;5155791;27;20051;-71
2022/07/31 09:43:59;;;;;;;21.50;16.47;;;20.30;99.90;;;;;;5155225;27;20091;-76
2022/07/31 09:46:26;;;;;;;24.50;16.97;;;20.30;99.90;;;;;;5155661;27;20039;-75
2022/07/31 09:48:55;;;;;;;19.97;16.03;;;20.20;99.90;;;;;;5136724;27;20054;-75
2022/07/31 09:51:22;;;;;;;23.27;17.97;;;20.30;99.90;;;;;;5155480;27;20083;-70
2022/07/31 09:53:52;;;;;;;24.80;18.60;;;20.30;99.90;;;;;;5155218;27;20506;-73
2022/07/31 09:56:29;;;;;;;22.90;18.40;;;20.30;99.90;;;;;;5155582;27;20043;-70
2022/07/31 09:58:56;;;;;;;25.67;19.90;;;20.30;99.90;;;;;;5136590;27;20054;-71
2022/07/31 10:01:22;;;;;;;20.93;17.23;;;20.30;99.90;;;;;;5155306;27;20038;-70
2022/07/31 10:03:50;;;;;;;25.13;19.97;;;20.30;99.90;;;;;;5154950;27;20042;-69
2022/07/31 10:06:18;;;;;;;22.87;17.17;;;20.20;99.90;;;;;;5155191;27;20047;-69
2022/07/31 10:08:45;;;;;;;20.63;16.80;;;20.30;99.90;;;;;;5154857;27;20125;-74
2022/07/31 10:11:12;;;;;;;25.50;19.00;;;20.30;99.90;;;;;;5155078;27;20051;-73
2022/07/31 10:13:44;;;;;;;20.20;16.80;;;20.20;99.90;;;;;;5154648;27;20091;-73
2022/07/31 10:16:10;;;;;;;25.00;20.27;;;20.20;99.90;;;;;;5136012;27;20058;-72
2022/07/31 10:18:40;;;;;;;23.23;17.90;;;20.20;99.90;;;;;;5154688;27;20546;-72
2022/07/31 10:21:10;;;;;;;18.17;16.27;;;20.30;99.90;;;;;;5154354;27;20536;-73
2022/07/31 10:23:40;;;;;;;19.27;15.73;;;20.20;99.90;;;;;;5136049;27;20050;-72
2022/07/31 10:26:06;;;;;;;19.00;16.90;;;20.20;99.90;;;;;;5154666;27;20042;-72
2022/07/31 10:28:37;;;;;;;20.43;17.27;;;20.20;99.90;;;;;;5154816;27;20078;-72
2022/07/31 10:31:04;;;;;;;19.00;16.33;;;20.20;99.90;;;;;;5147725;27;20118;-73
2022/07/31 10:33:31;;;;;;;19.80;17.13;;;20.20;99.90;;;;;;5143670;27;20035;-73
2022/07/31 10:36:14;;;;;;;18.07;15.73;;;20.20;99.90;;;;;;5142967;27;20039;-73
2022/07/31 10:39:01;;;;;;;21.93;18.67;;;20.20;99.90;;;;;;5145023;27;20050;-74
2022/07/31 10:41:54;;;;;;;17.43;15.20;;;20.20;99.90;;;;;;5136731;27;20556;-74
2022/07/31 10:44:34;;;;;;;17.77;15.53;;;20.20;99.90;;;;;;5133982;28;20051;-74
2022/07/31 10:47:14;;;;;;;23.97;19.83;;;20.20;99.90;;;;;;5133680;28;20054;-74
2022/07/31 10:49:48;;;;;;;18.77;16.87;;;20.20;99.90;;;;;;5134425;28;20122;-77
2022/07/31 10:52:36;;;;;;;22.83;18.67;;;20.10;99.90;;;;;;5134341;28;20096;-71
2022/07/31 10:55:14;;;;;;;23.57;19.93;;;20.10;99.90;;;;;;5133198;28;20480;-68
2022/07/31 10:57:40;;;;;;;26.17;23.30;;;20.10;99.90;;;;;;5133959;28;20107;-68
2022/07/31 11:00:13;;;;;;;30.57;23.90;;;20.00;99.90;;;;;;5136649;27;20133;-68
2022/07/31 11:02:39;;;;;;;30.37;21.80;;;20.00;99.90;;;;;;5138284;27;20047;-68
2022/07/31 11:05:10;;;;;;;22.23;19.53;;;20.00;99.90;;;;;;5137638;27;20398;-68
2022/07/31 11:07:36;;;;;;;23.50;19.77;;;19.90;99.90;;;;;;5138082;27;20510;-68
2022/07/31 11:10:09;;;;;;;23.33;20.07;;;20.00;99.90;;;;;;5137505;27;20039;-68
2022/07/31 11:12:34;;;;;;;30.73;23.13;;;19.90;99.90;;;;;;5137790;27;20053;-68
2022/07/31 11:15:00;;;;;;;23.47;20.93;;;19.80;99.90;;;;;;5137422;27;20138;-69
2022/07/31 11:17:31;;;;;;;27.33;21.03;;;19.80;99.90;;;;;;5137909;27;20055;-69
2022/07/31 11:19:57;;;;;;;38.17;26.03;;;19.80;99.90;;;;;;5137508;27;20051;-69
2022/07/31 11:22:23;;;;;;;26.60;22.47;;;19.70;99.90;;;;;;5142822;27;20371;-77
2022/07/31 11:24:55;;;;;;;29.67;22.90;;;19.70;99.90;;;;;;5146849;27;20035;-78
2022/07/31 11:27:33;;;;;;;36.97;26.67;;;19.70;99.90;;;;;;5146121;27;20060;-70
2022/07/31 11:30:06;;;;;;;32.23;25.57;;;19.70;99.90;;;;;;5147671;27;20552;-70
2022/07/31 11:32:32;;;;;;;37.27;25.53;;;19.70;99.90;;;;;;5147212;27;20391;-71
2022/07/31 11:34:57;;;;;;;30.13;22.10;;;19.70;99.90;;;;;;5146223;27;20035;-71
2022/07/31 11:37:29;;;;;;;30.97;22.97;;;19.60;99.90;;;;;;5145460;27;20072;-70
2022/07/31 11:39:56;;;;;;;32.57;23.10;;;19.60;99.90;;;;;;5137000;27;20092;-71
2022/07/31 11:42:24;;;;;;;27.40;20.57;;;19.60;99.90;;;;;;5137225;27;20497;-70
2022/07/31 11:44:50;;;;;;;29.13;21.17;;;19.60;99.90;;;;;;5137174;27;20445;-76
2022/07/31 11:47:15;;;;;;;25.47;19.57;;;19.60;99.90;;;;;;5136684;27;20091;-74
2022/07/31 11:49:41;;;;;;;26.67;19.43;;;19.60;99.90;;;;;;5137061;27;20431;-74
2022/07/31 11:52:11;;;;;;;25.30;20.13;;;19.70;99.90;;;;;;5136802;27;20112;-74
2022/07/31 11:54:37;;;;;;;18.73;16.73;;;19.70;99.90;;;;;;5136888;27;20126;-74
2022/07/31 11:57:04;;;;;;;27.03;18.20;;;19.70;99.90;;;;;;5118288;27;20035;-74
2022/07/31 11:59:39;;;;;;;28.73;19.67;;;19.70;99.90;;;;;;5136874;27;20039;-78
2022/07/31 12:02:10;;;;;;;23.15;17.75;;;19.70;99.90;;;;;;5136409;27;20518;-74
2022/07/31 12:04:37;;;;;;;24.20;18.50;;;19.60;99.90;;;;;;5136749;27;20433;-75
2022/07/31 12:07:05;;;;;;;26.20;19.60;;;19.60;99.90;;;;;;5136425;27;20123;-74
2022/07/31 12:09:32;;;;;;;29.07;20.67;;;19.60;99.90;;;;;;5136282;27;20625;-74
2022/07/31 12:11:59;;;;;;;31.83;21.90;;;19.60;99.90;;;;;;5135212;27;20054;-76
2022/07/31 12:14:36;;;;;;;32.40;22.00;;;19.60;99.90;;;;;;5136263;27;20510;-69
2022/07/31 12:17:05;;;;;;;33.90;21.60;;;19.60;99.90;;;;;;5136387;27;20178;-70
2022/07/31 12:19:33;;;;;;;28.23;19.57;;;19.60;99.90;;;;;;5101333;27;20079;-73
2022/07/31 12:22:00;;;;;;;17.20;11.83;;;19.60;99.90;;;;;;5136196;27;20035;-72
2022/07/31 12:24:26;;;;;;;12.20;10.13;;;19.70;99.90;;;;;;5143751;27;20042;-74
2022/07/31 12:26:54;;;;;;;14.10;11.27;;;19.70;99.90;;;;;;5156932;27;20092;-75
2022/07/31 12:29:30;;;;;;;14.30;10.47;;;19.80;99.90;;;;;;5156776;27;20068;-75
2022/07/31 12:31:57;;;;;;;9.53;7.70;;;19.90;99.90;;;;;;5156833;27;20525;-75
2022/07/31 12:34:27;;;;;;;12.40;8.43;;;19.90;99.90;;;;;;5155765;27;20043;-77
2022/07/31 12:37:13;;;;;;;11.80;8.97;;;19.90;99.90;;;;;;5136405;27;20413;-76
2022/07/31 12:39:55;;;;;;;13.90;9.33;;;19.90;99.90;;;;;;5136176;27;20058;-76
2022/07/31 12:42:21;;;;;;;13.37;10.67;;;19.90;99.90;;;;;;5117809;27;20486;-79
2022/07/31 12:44:51;;;;;;;14.57;11.83;;;19.90;99.90;;;;;;5136106;27;20047;-75